sensor_id;sensor_type;location;lat;lon;timestamp;temperature;humidity
80380;DHT22;69690;48.158;17.134;2023-06-10T00:01:10;18.20;86.80
80380;DHT22;69690;48.158;17.134;2023-06-10T00:06:11;18.20;87.00
80380;DHT22;69690;48.158;17.134;2023-06-10T00:11:13;18.20;86.90
80380;DHT22;69690;48.158;17.134;2023-06-10T00:16:15;18.20;86.80
80380;DHT22;69690;48.158;17.134;2023-06-10T00:21:18;18.20;87.20
80380;DHT22;69690;48.158;17.134;2023-06-10T00:26:19;18.20;87.40
80380;DHT22;69690;48.158;17.134;2023-06-10T00:31:24;18.20;87.60
80380;DHT22;69690;48.158;17.134;2023-06-10T00:36:27;18.10;87.70
80380;DHT22;69690;48.158;17.134;2023-06-10T00:41:29;18.10;87.70
80380;DHT22;69690;48.158;17.134;2023-06-10T00:46:31;18.10;87.70
80380;DHT22;69690;48.158;17.134;2023-06-10T00:51:34;18.00;87.90
80380;DHT22;69690;48.158;17.134;2023-06-10T00:56:37;18.00;88.20
80380;DHT22;69690;48.158;17.134;2023-06-10T01:01:38;18.10;88.50
80380;DHT22;69690;48.158;17.134;2023-06-10T01:12:29;18.10;88.50
80380;DHT22;69690;48.158;17.134;2023-06-10T01:17:33;18.10;88.20
80380;DHT22;69690;48.158;17.134;2023-06-10T01:22:38;18.20;88.20
80380;DHT22;69690;48.158;17.134;2023-06-10T01:27:40;18.20;88.00
80380;DHT22;69690;48.158;17.134;2023-06-10T01:32:50;18.20;87.80
80380;DHT22;69690;48.158;17.134;2023-06-10T01:37:54;18.20;87.60
80380;DHT22;69690;48.158;17.134;2023-06-10T01:42:57;18.20;87.40
80380;DHT22;69690;48.158;17.134;2023-06-10T01:47:59;18.20;87.20
80380;DHT22;69690;48.158;17.134;2023-06-10T01:53:00;18.00;87.40
80380;DHT22;69690;48.158;17.134;2023-06-10T01:58:02;17.90;88.10
80380;DHT22;69690;48.158;17.134;2023-06-10T02:03:03;17.90;88.10
80380;DHT22;69690;48.158;17.134;2023-06-10T02:08:04;17.80;88.60
80380;DHT22;69690;48.158;17.134;2023-06-10T02:13:06;17.90;88.50
80380;DHT22;69690;48.158;17.134;2023-06-10T02:18:08;18.00;88.40
80380;DHT22;69690;48.158;17.134;2023-06-10T02:23:12;18.00;88.20
80380;DHT22;69690;48.158;17.134;2023-06-10T02:28:14;17.90;88.10
80380;DHT22;69690;48.158;17.134;2023-06-10T02:33:15;18.00;88.20
80380;DHT22;69690;48.158;17.134;2023-06-10T02:38:18;17.90;88.10
80380;DHT22;69690;48.158;17.134;2023-06-10T02:43:19;17.90;88.20
80380;DHT22;69690;48.158;17.134;2023-06-10T02:48:24;17.80;88.20
80380;DHT22;69690;48.158;17.134;2023-06-10T02:53:26;17.80;88.50
80380;DHT22;69690;48.158;17.134;2023-06-10T02:58:27;17.80;88.60
80380;DHT22;69690;48.158;17.134;2023-06-10T03:03:30;17.80;88.50
80380;DHT22;69690;48.158;17.134;2023-06-10T03:08:34;17.90;88.50
80380;DHT22;69690;48.158;17.134;2023-06-10T03:13:36;17.90;88.50
80380;DHT22;69690;48.158;17.134;2023-06-10T03:18:38;17.90;88.20
80380;DHT22;69690;48.158;17.134;2023-06-10T03:23:42;17.90;88.20
80380;DHT22;69690;48.158;17.134;2023-06-10T03:28:43;17.90;88.30
80380;DHT22;69690;48.158;17.134;2023-06-10T03:33:45;17.90;88.50
80380;DHT22;69690;48.158;17.134;2023-06-10T03:38:46;17.90;88.40
80380;DHT22;69690;48.158;17.134;2023-06-10T03:43:48;17.90;88.30
80380;DHT22;69690;48.158;17.134;2023-06-10T03:48:50;17.90;88.20
80380;DHT22;69690;48.158;17.134;2023-06-10T03:53:52;17.90;88.20
80380;DHT22;69690;48.158;17.134;2023-06-10T03:58:54;18.00;88.20
80380;DHT22;69690;48.158;17.134;2023-06-10T04:03:57;17.90;87.90
80380;DHT22;69690;48.158;17.134;2023-06-10T04:08:59;17.90;88.00
80380;DHT22;69690;48.158;17.134;2023-06-10T04:14:01;17.90;88.20
80380;DHT22;69690;48.158;17.134;2023-06-10T04:19:03;17.90;87.90
80380;DHT22;69690;48.158;17.134;2023-06-10T04:24:05;18.00;88.00
80380;DHT22;69690;48.158;17.134;2023-06-10T04:29:07;18.00;87.80
80380;DHT22;69690;48.158;17.134;2023-06-10T04:34:08;17.90;87.80
80380;DHT22;69690;48.158;17.134;2023-06-10T04:39:10;17.90;88.10
80380;DHT22;69690;48.158;17.134;2023-06-10T04:44:13;18.00;87.80
80380;DHT22;69690;48.158;17.134;2023-06-10T04:49:14;18.10;87.80
80380;DHT22;69690;48.158;17.134;2023-06-10T04:54:16;18.10;87.40
80380;DHT22;69690;48.158;17.134;2023-06-10T04:59:17;18.10;87.50
80380;DHT22;69690;48.158;17.134;2023-06-10T05:04:18;18.40;87.00
80380;DHT22;69690;48.158;17.134;2023-06-10T05:09:20;18.60;86.40
80380;DHT22;69690;48.158;17.134;2023-06-10T05:14:21;18.80;85.80
80380;DHT22;69690;48.158;17.134;2023-06-10T05:19:23;19.00;85.30
80380;DHT22;69690;48.158;17.134;2023-06-10T05:24:24;19.10;84.40
80380;DHT22;69690;48.158;17.134;2023-06-10T05:29:25;19.20;84.20
80380;DHT22;69690;48.158;17.134;2023-06-10T05:34:26;19.40;83.50
80380;DHT22;69690;48.158;17.134;2023-06-10T05:39:28;19.50;83.10
80380;DHT22;69690;48.158;17.134;2023-06-10T05:44:29;19.60;82.50
80380;DHT22;69690;48.158;17.134;2023-06-10T05:49:30;19.60;82.40
80380;DHT22;69690;48.158;17.134;2023-06-10T05:54:32;19.70;82.10
80380;DHT22;69690;48.158;17.134;2023-06-10T05:59:33;19.50;81.30
80380;DHT22;69690;48.158;17.134;2023-06-10T06:04:34;19.50;82.30
80380;DHT22;69690;48.158;17.134;2023-06-10T06:09:35;19.40;82.50
80380;DHT22;69690;48.158;17.134;2023-06-10T06:14:38;19.40;82.80
80380;DHT22;69690;48.158;17.134;2023-06-10T06:19:42;19.50;82.40
80380;DHT22;69690;48.158;17.134;2023-06-10T06:24:44;19.50;81.90
80380;DHT22;69690;48.158;17.134;2023-06-10T06:29:45;19.60;81.70
80380;DHT22;69690;48.158;17.134;2023-06-10T06:34:46;19.80;81.00
80380;DHT22;69690;48.158;17.134;2023-06-10T06:39:48;20.10;80.10
80380;DHT22;69690;48.158;17.134;2023-06-10T06:44:49;20.40;79.30
80380;DHT22;69690;48.158;17.134;2023-06-10T06:49:50;20.20;79.30
80380;DHT22;69690;48.158;17.134;2023-06-10T06:54:52;20.30;78.90
80380;DHT22;69690;48.158;17.134;2023-06-10T06:59:53;20.20;79.40
80380;DHT22;69690;48.158;17.134;2023-06-10T07:04:54;20.30;79.00
80380;DHT22;69690;48.158;17.134;2023-06-10T07:09:56;20.40;79.20
80380;DHT22;69690;48.158;17.134;2023-06-10T07:14:58;20.60;78.10
80380;DHT22;69690;48.158;17.134;2023-06-10T07:19:59;20.70;77.80
80380;DHT22;69690;48.158;17.134;2023-06-10T07:25:00;20.90;77.90
80380;DHT22;69690;48.158;17.134;2023-06-10T07:30:02;21.10;76.60
80380;DHT22;69690;48.158;17.134;2023-06-10T07:35:08;20.80;76.90
80380;DHT22;69690;48.158;17.134;2023-06-10T07:40:11;20.70;77.30
80380;DHT22;69690;48.158;17.134;2023-06-10T07:45:12;20.60;77.20
80380;DHT22;69690;48.158;17.134;2023-06-10T07:50:14;20.70;77.40
80380;DHT22;69690;48.158;17.134;2023-06-10T07:55:16;20.60;77.30
80380;DHT22;69690;48.158;17.134;2023-06-10T08:00:18;20.70;77.10
80380;DHT22;69690;48.158;17.134;2023-06-10T08:05:20;20.60;76.90
80380;DHT22;69690;48.158;17.134;2023-06-10T08:10:21;20.90;76.20
80380;DHT22;69690;48.158;17.134;2023-06-10T08:15:22;21.00;75.00
80380;DHT22;69690;48.158;17.134;2023-06-10T08:20:24;21.10;75.30
80380;DHT22;69690;48.158;17.134;2023-06-10T08:25:26;21.30;74.90
80380;DHT22;69690;48.158;17.134;2023-06-10T08:30:27;21.20;74.50
80380;DHT22;69690;48.158;17.134;2023-06-10T08:35:28;21.30;73.80
80380;DHT22;69690;48.158;17.134;2023-06-10T08:40:29;21.60;73.10
80380;DHT22;69690;48.158;17.134;2023-06-10T08:45:31;21.80;72.90
80380;DHT22;69690;48.158;17.134;2023-06-10T08:50:35;22.10;71.70
80380;DHT22;69690;48.158;17.134;2023-06-10T08:55:42;22.20;70.80
80380;DHT22;69690;48.158;17.134;2023-06-10T09:00:46;21.80;71.10
80380;DHT22;69690;48.158;17.134;2023-06-10T09:05:48;21.90;70.90
80380;DHT22;69690;48.158;17.134;2023-06-10T09:10:49;21.80;71.40
80380;DHT22;69690;48.158;17.134;2023-06-10T09:15:51;21.80;71.70
80380;DHT22;69690;48.158;17.134;2023-06-10T09:20:52;21.80;71.80
80380;DHT22;69690;48.158;17.134;2023-06-10T09:25:57;21.70;72.30
80380;DHT22;69690;48.158;17.134;2023-06-10T09:31:04;21.70;72.20
80380;DHT22;69690;48.158;17.134;2023-06-10T09:36:06;21.80;72.10
80380;DHT22;69690;48.158;17.134;2023-06-10T09:41:07;21.70;71.70
80380;DHT22;69690;48.158;17.134;2023-06-10T09:46:19;21.70;72.00
80380;DHT22;69690;48.158;17.134;2023-06-10T09:51:20;21.90;71.80
80380;DHT22;69690;48.158;17.134;2023-06-10T09:56:36;22.30;70.50
80380;DHT22;69690;48.158;17.134;2023-06-10T10:01:37;22.80;69.30
80380;DHT22;69690;48.158;17.134;2023-06-10T10:06:39;22.70;67.80
80380;DHT22;69690;48.158;17.134;2023-06-10T10:11:40;22.40;68.80
80380;DHT22;69690;48.158;17.134;2023-06-10T10:16:44;22.30;70.40
80380;DHT22;69690;48.158;17.134;2023-06-10T10:22:02;22.10;72.30
80380;DHT22;69690;48.158;17.134;2023-06-10T10:27:20;22.00;73.80
80380;DHT22;69690;48.158;17.134;2023-06-10T10:32:35;21.90;73.70
80380;DHT22;69690;48.158;17.134;2023-06-10T10:37:39;22.00;74.20
80380;DHT22;69690;48.158;17.134;2023-06-10T10:42:41;22.30;72.80
80380;DHT22;69690;48.158;17.134;2023-06-10T10:47:45;22.40;71.70
80380;DHT22;69690;48.158;17.134;2023-06-10T10:52:55;22.70;70.90
80380;DHT22;69690;48.158;17.134;2023-06-10T10:58:04;23.10;69.60
80380;DHT22;69690;48.158;17.134;2023-06-10T11:03:22;23.30;68.30
80380;DHT22;69690;48.158;17.134;2023-06-10T11:13:33;24.50;63.30
80380;DHT22;69690;48.158;17.134;2023-06-10T11:18:40;25.30;61.30
80380;DHT22;69690;48.158;17.134;2023-06-10T11:23:42;26.00;59.20
80380;DHT22;69690;48.158;17.134;2023-06-10T11:33:58;27.40;55.20
80380;DHT22;69690;48.158;17.134;2023-06-10T11:39:05;28.40;53.50
80380;DHT22;69690;48.158;17.134;2023-06-10T11:44:12;28.30;53.10
80380;DHT22;69690;48.158;17.134;2023-06-10T11:49:15;29.60;50.50
80380;DHT22;69690;48.158;17.134;2023-06-10T11:54:17;28.70;51.10
80380;DHT22;69690;48.158;17.134;2023-06-10T11:59:18;27.80;53.20
80380;DHT22;69690;48.158;17.134;2023-06-10T12:04:27;27.20;54.40
80380;DHT22;69690;48.158;17.134;2023-06-10T12:09:29;26.50;56.00
80380;DHT22;69690;48.158;17.134;2023-06-10T12:14:59;26.90;56.70
80380;DHT22;69690;48.158;17.134;2023-06-10T12:20:08;26.90;55.60
80380;DHT22;69690;48.158;17.134;2023-06-10T12:25:11;26.20;56.20
80380;DHT22;69690;48.158;17.134;2023-06-10T12:30:20;26.00;57.50
80380;DHT22;69690;48.158;17.134;2023-06-10T12:35:25;25.90;58.50
80380;DHT22;69690;48.158;17.134;2023-06-10T12:40:32;25.60;59.40
80380;DHT22;69690;48.158;17.134;2023-06-10T12:45:37;25.30;60.70
80380;DHT22;69690;48.158;17.134;2023-06-10T12:50:41;24.90;62.10
80380;DHT22;69690;48.158;17.134;2023-06-10T12:55:43;24.30;66.30
80380;DHT22;69690;48.158;17.134;2023-06-10T13:00:46;23.10;70.90
80380;DHT22;69690;48.158;17.134;2023-06-10T13:05:49;22.70;73.80
80380;DHT22;69690;48.158;17.134;2023-06-10T13:10:50;22.50;74.80
80380;DHT22;69690;48.158;17.134;2023-06-10T13:15:52;22.50;75.80
80380;DHT22;69690;48.158;17.134;2023-06-10T13:20:53;23.00;76.00
80380;DHT22;69690;48.158;17.134;2023-06-10T13:25:55;23.30;75.70
80380;DHT22;69690;48.158;17.134;2023-06-10T13:30:56;23.60;74.90
80380;DHT22;69690;48.158;17.134;2023-06-10T13:35:57;24.00;74.40
80380;DHT22;69690;48.158;17.134;2023-06-10T13:40:58;24.30;71.80
80380;DHT22;69690;48.158;17.134;2023-06-10T13:46:00;24.60;69.40
80380;DHT22;69690;48.158;17.134;2023-06-10T13:51:01;24.70;69.60
80380;DHT22;69690;48.158;17.134;2023-06-10T13:56:02;24.90;68.10
80380;DHT22;69690;48.158;17.134;2023-06-10T14:01:04;24.70;68.10
80380;DHT22;69690;48.158;17.134;2023-06-10T14:06:08;24.70;69.40
80380;DHT22;69690;48.158;17.134;2023-06-10T14:11:09;25.10;65.50
80380;DHT22;69690;48.158;17.134;2023-06-10T14:16:10;25.30;62.60
80380;DHT22;69690;48.158;17.134;2023-06-10T14:21:12;25.10;63.20
80380;DHT22;69690;48.158;17.134;2023-06-10T14:26:13;25.10;62.80
80380;DHT22;69690;48.158;17.134;2023-06-10T14:31:14;25.00;63.70
80380;DHT22;69690;48.158;17.134;2023-06-10T14:36:16;25.00;65.40
80380;DHT22;69690;48.158;17.134;2023-06-10T14:41:17;25.00;67.20
80380;DHT22;69690;48.158;17.134;2023-06-10T14:46:18;25.50;63.70
80380;DHT22;69690;48.158;17.134;2023-06-10T14:51:21;25.60;63.50
80380;DHT22;69690;48.158;17.134;2023-06-10T14:56:23;26.00;62.80
80380;DHT22;69690;48.158;17.134;2023-06-10T15:01:24;26.30;62.90
80380;DHT22;69690;48.158;17.134;2023-06-10T15:06:25;26.20;61.00
80380;DHT22;69690;48.158;17.134;2023-06-10T15:11:26;25.80;62.10
80380;DHT22;69690;48.158;17.134;2023-06-10T15:16:28;25.10;62.00
80380;DHT22;69690;48.158;17.134;2023-06-10T15:21:29;24.50;65.30
80380;DHT22;69690;48.158;17.134;2023-06-10T15:26:30;23.90;69.00
80380;DHT22;69690;48.158;17.134;2023-06-10T15:31:32;23.50;71.00
80380;DHT22;69690;48.158;17.134;2023-06-10T15:36:33;23.00;71.20
80380;DHT22;69690;48.158;17.134;2023-06-10T15:41:36;22.40;69.50
80380;DHT22;69690;48.158;17.134;2023-06-10T15:46:38;21.80;71.20
80380;DHT22;69690;48.158;17.134;2023-06-10T15:51:40;21.30;73.70
80380;DHT22;69690;48.158;17.134;2023-06-10T15:56:41;21.00;75.60
80380;DHT22;69690;48.158;17.134;2023-06-10T16:01:42;20.90;76.70
80380;DHT22;69690;48.158;17.134;2023-06-10T16:06:43;20.70;77.60
80380;DHT22;69690;48.158;17.134;2023-06-10T16:11:45;20.60;78.30
80380;DHT22;69690;48.158;17.134;2023-06-10T16:16:46;20.70;78.80
80380;DHT22;69690;48.158;17.134;2023-06-10T16:21:48;20.60;78.90
80380;DHT22;69690;48.158;17.134;2023-06-10T16:26:49;20.60;79.70
80380;DHT22;69690;48.158;17.134;2023-06-10T16:31:50;20.60;80.50
80380;DHT22;69690;48.158;17.134;2023-06-10T16:36:51;20.60;80.80
80380;DHT22;69690;48.158;17.134;2023-06-10T16:41:52;20.60;81.30
80380;DHT22;69690;48.158;17.134;2023-06-10T16:46:54;20.60;81.60
80380;DHT22;69690;48.158;17.134;2023-06-10T16:51:56;20.70;81.70
80380;DHT22;69690;48.158;17.134;2023-06-10T16:56:57;20.80;81.40
80380;DHT22;69690;48.158;17.134;2023-06-10T17:01:58;20.70;80.60
80380;DHT22;69690;48.158;17.134;2023-06-10T17:06:59;20.80;80.30
80380;DHT22;69690;48.158;17.134;2023-06-10T17:12:01;20.80;80.30
80380;DHT22;69690;48.158;17.134;2023-06-10T17:17:02;20.90;80.30
80380;DHT22;69690;48.158;17.134;2023-06-10T17:22:04;21.00;80.50
80380;DHT22;69690;48.158;17.134;2023-06-10T17:27:05;21.00;79.90
80380;DHT22;69690;48.158;17.134;2023-06-10T17:32:07;21.00;81.90
80380;DHT22;69690;48.158;17.134;2023-06-10T17:37:08;21.00;82.50
80380;DHT22;69690;48.158;17.134;2023-06-10T17:42:10;21.00;83.30
80380;DHT22;69690;48.158;17.134;2023-06-10T17:47:11;20.90;82.70
80380;DHT22;69690;48.158;17.134;2023-06-10T17:52:12;20.70;82.10
80380;DHT22;69690;48.158;17.134;2023-06-10T17:57:14;20.60;82.20
80380;DHT22;69690;48.158;17.134;2023-06-10T18:02:15;20.40;82.40
80380;DHT22;69690;48.158;17.134;2023-06-10T18:07:16;20.40;82.10
80380;DHT22;69690;48.158;17.134;2023-06-10T18:12:18;20.40;82.30
80380;DHT22;69690;48.158;17.134;2023-06-10T18:17:19;20.30;82.40
80380;DHT22;69690;48.158;17.134;2023-06-10T18:22:21;20.30;82.30
80380;DHT22;69690;48.158;17.134;2023-06-10T18:27:23;20.30;81.70
80380;DHT22;69690;48.158;17.134;2023-06-10T18:32:25;20.30;81.10
80380;DHT22;69690;48.158;17.134;2023-06-10T18:37:26;20.40;81.00
80380;DHT22;69690;48.158;17.134;2023-06-10T18:42:27;20.30;81.30
80380;DHT22;69690;48.158;17.134;2023-06-10T18:47:29;20.40;80.80
80380;DHT22;69690;48.158;17.134;2023-06-10T18:52:30;20.30;80.70
80380;DHT22;69690;48.158;17.134;2023-06-10T18:57:31;20.40;81.60
80380;DHT22;69690;48.158;17.134;2023-06-10T19:02:33;20.30;83.20
80380;DHT22;69690;48.158;17.134;2023-06-10T19:07:35;20.30;83.70
80380;DHT22;69690;48.158;17.134;2023-06-10T19:12:36;20.30;83.70
80380;DHT22;69690;48.158;17.134;2023-06-10T19:17:39;20.30;84.50
80380;DHT22;69690;48.158;17.134;2023-06-10T19:22:41;20.20;84.60
80380;DHT22;69690;48.158;17.134;2023-06-10T19:27:42;20.20;84.70
80380;DHT22;69690;48.158;17.134;2023-06-10T19:32:43;20.20;85.50
80380;DHT22;69690;48.158;17.134;2023-06-10T19:37:45;20.10;84.80
80380;DHT22;69690;48.158;17.134;2023-06-10T19:42:47;20.10;84.30
80380;DHT22;69690;48.158;17.134;2023-06-10T19:47:49;20.10;83.60
80380;DHT22;69690;48.158;17.134;2023-06-10T19:52:50;20.10;83.60
80380;DHT22;69690;48.158;17.134;2023-06-10T19:57:51;20.00;83.50
80380;DHT22;69690;48.158;17.134;2023-06-10T20:02:55;20.00;83.50
80380;DHT22;69690;48.158;17.134;2023-06-10T20:07:57;20.00;83.60
80380;DHT22;69690;48.158;17.134;2023-06-10T20:12:58;19.80;84.30
80380;DHT22;69690;48.158;17.134;2023-06-10T20:17:59;19.80;84.10
80380;DHT22;69690;48.158;17.134;2023-06-10T20:23:00;19.90;84.10
80380;DHT22;69690;48.158;17.134;2023-06-10T20:28:01;19.90;83.80
80380;DHT22;69690;48.158;17.134;2023-06-10T20:33:03;19.90;83.60
80380;DHT22;69690;48.158;17.134;2023-06-10T20:38:06;19.90;83.30
80380;DHT22;69690;48.158;17.134;2023-06-10T20:43:07;19.80;83.30
80380;DHT22;69690;48.158;17.134;2023-06-10T20:48:10;19.80;83.20
80380;DHT22;69690;48.158;17.134;2023-06-10T20:53:11;19.80;83.20
80380;DHT22;69690;48.158;17.134;2023-06-10T20:58:13;19.80;83.10
80380;DHT22;69690;48.158;17.134;2023-06-10T21:03:15;19.80;82.90
80380;DHT22;69690;48.158;17.134;2023-06-10T21:08:16;19.80;82.70
80380;DHT22;69690;48.158;17.134;2023-06-10T21:13:17;19.90;82.80
80380;DHT22;69690;48.158;17.134;2023-06-10T21:18:19;19.90;82.80
80380;DHT22;69690;48.158;17.134;2023-06-10T21:23:20;19.90;82.50
80380;DHT22;69690;48.158;17.134;2023-06-10T21:28:21;19.90;82.60
80380;DHT22;69690;48.158;17.134;2023-06-10T21:33:22;20.00;82.50
80380;DHT22;69690;48.158;17.134;2023-06-10T21:38:24;19.90;82.10
80380;DHT22;69690;48.158;17.134;2023-06-10T21:43:26;19.90;82.20
80380;DHT22;69690;48.158;17.134;2023-06-10T21:48:27;19.90;82.70
80380;DHT22;69690;48.158;17.134;2023-06-10T21:53:28;19.90;83.00
80380;DHT22;69690;48.158;17.134;2023-06-10T21:58:29;20.00;83.20
80380;DHT22;69690;48.158;17.134;2023-06-10T22:03:31;20.00;83.40
80380;DHT22;69690;48.158;17.134;2023-06-10T22:08:32;20.00;83.50
80380;DHT22;69690;48.158;17.134;2023-06-10T22:13:33;20.00;82.90
80380;DHT22;69690;48.158;17.134;2023-06-10T22:18:35;20.00;82.80
80380;DHT22;69690;48.158;17.134;2023-06-10T22:23:36;20.00;82.80
80380;DHT22;69690;48.158;17.134;2023-06-10T22:28:38;20.00;82.50
80380;DHT22;69690;48.158;17.134;2023-06-10T22:33:39;20.00;82.40
80380;DHT22;69690;48.158;17.134;2023-06-10T22:38:40;20.00;82.10
80380;DHT22;69690;48.158;17.134;2023-06-10T22:43:41;20.00;82.80
80380;DHT22;69690;48.158;17.134;2023-06-10T22:48:43;20.10;82.10
80380;DHT22;69690;48.158;17.134;2023-06-10T22:53:44;20.10;82.50
80380;DHT22;69690;48.158;17.134;2023-06-10T22:58:45;20.20;82.40
80380;DHT22;69690;48.158;17.134;2023-06-10T23:03:47;20.20;82.30
80380;DHT22;69690;48.158;17.134;2023-06-10T23:08:50;20.20;81.90
80380;DHT22;69690;48.158;17.134;2023-06-10T23:13:51;20.20;81.90
80380;DHT22;69690;48.158;17.134;2023-06-10T23:18:53;20.10;81.60
80380;DHT22;69690;48.158;17.134;2023-06-10T23:23:56;20.10;81.60
80380;DHT22;69690;48.158;17.134;2023-06-10T23:28:57;20.00;81.50
80380;DHT22;69690;48.158;17.134;2023-06-10T23:34:00;20.00;81.90
80380;DHT22;69690;48.158;17.134;2023-06-10T23:39:05;20.00;81.70
80380;DHT22;69690;48.158;17.134;2023-06-10T23:44:08;19.90;81.60
80380;DHT22;69690;48.158;17.134;2023-06-10T23:49:10;19.80;81.20
80380;DHT22;69690;48.158;17.134;2023-06-10T23:54:11;19.80;81.70
80380;DHT22;69690;48.158;17.134;2023-06-10T23:59:13;19.80;82.20
